Time;durP1;ratioP1;P1;durP2;ratioP2;P2;SDS_P1;SDS_P2;PMS_P1;PMS_P2;Temp;Humidity;BMP_temperature;BMP_pressure;BME280_temperature;BME280_humidity;BME280_pressure;Samples;Min_cycle;Max_cycle;Signal;HPM_P1;HPM_P2
2021/06/12 00:00:31;;;;;;;3.05;2.63;;;;;;;-143.37;100.00;65745.06;5091428;28;20197;-69
2021/06/12 00:02:58;;;;;;;3.47;2.58;;;;;;;-143.37;100.00;65745.06;5090539;28;20252;-69
2021/06/12 00:05:25;;;;;;;3.25;2.38;;;;;;;-143.37;100.00;65745.06;5073572;28;20228;-69
2021/06/12 00:07:52;;;;;;;4.00;2.50;;;;;;;-143.37;100.00;65745.06;5091212;28;20291;-69
2021/06/12 00:10:23;;;;;;;2.92;2.40;;;;;;;-143.37;100.00;65745.06;5091117;28;20228;-69
2021/06/12 00:12:50;;;;;;;2.90;2.55;;;;;;;-143.37;100.00;65745.06;5088460;28;20263;-70
2021/06/12 00:15:20;;;;;;;3.65;2.45;;;;;;;-143.37;100.00;65745.06;5073130;28;20667;-70
2021/06/12 00:17:47;;;;;;;4.00;3.08;;;;;;;-143.37;100.00;65745.06;5087885;28;20236;-70
2021/06/12 00:20:17;;;;;;;3.00;2.45;;;;;;;-143.37;100.00;65745.06;5091273;28;20746;-70
2021/06/12 00:22:44;;;;;;;5.55;2.38;;;;;;;-143.37;100.00;65745.06;5090376;28;20236;-70
2021/06/12 00:25:16;;;;;;;2.85;2.38;;;;;;;-143.37;100.00;65745.06;5097494;28;20204;-70
2021/06/12 00:27:43;;;;;;;4.22;2.75;;;;;;;-143.37;100.00;65745.06;5075280;28;20253;-69
2021/06/12 00:30:11;;;;;;;3.53;2.50;;;;;;;-143.37;100.00;65745.06;5091010;28;20220;-69
2021/06/12 00:32:38;;;;;;;5.13;3.15;;;;;;;-143.37;100.00;65745.06;5090108;28;20319;-69
2021/06/12 00:35:10;;;;;;;3.20;2.60;;;;;;;-143.37;100.00;65745.06;5091595;28;20296;-69
2021/06/12 00:37:38;;;;;;;3.47;2.75;;;;;;;-143.37;100.00;65745.06;5090580;28;20253;-69
2021/06/12 00:40:07;;;;;;;3.88;2.60;;;;;;;-143.37;100.00;65745.06;5090602;28;20207;-69
2021/06/12 00:42:37;;;;;;;3.33;2.80;;;;;;;-143.37;100.00;65745.06;5090159;28;20256;-69
2021/06/12 00:45:18;;;;;;;3.13;2.33;;;;;;;-143.37;100.00;65745.06;5078763;28;20208;-69
2021/06/12 00:47:50;;;;;;;4.63;2.63;;;;;;;-143.37;100.00;65745.06;5090840;28;20688;-70
2021/06/12 00:50:19;;;;;;;3.95;2.67;;;;;;;-143.37;100.00;65745.06;5090960;28;20270;-69
2021/06/12 00:52:46;;;;;;;4.63;2.97;;;;;;;-143.37;100.00;65745.06;5090422;28;20251;-69
2021/06/12 00:55:15;;;;;;;3.72;2.70;;;;;;;-143.37;100.00;65745.06;5090868;28;20203;-71
2021/06/12 00:57:44;;;;;;;5.25;2.75;;;;;;;-143.37;100.00;65745.06;5090644;28;20299;-71
2021/06/12 01:34:37;;;;;;;4.70;2.90;;;;;;;-143.37;100.00;65745.06;5161822;27;20635;-70
2021/06/12 01:37:08;;;;;;;3.73;2.93;;;;;;;-143.37;100.00;65745.06;5128469;27;20217;-69
2021/06/12 01:39:38;;;;;;;5.60;2.77;;;;;;;-143.37;100.00;65745.06;5128909;27;20209;-69
2021/06/12 01:42:07;;;;;;;4.50;2.87;;;;;;;-143.37;100.00;65745.06;5122158;27;20649;-69
2021/06/12 01:44:35;;;;;;;5.37;3.37;;;;;;;-143.37;100.00;65745.06;5132289;27;20200;-70
2021/06/12 01:47:03;;;;;;;3.00;2.43;;;;;;;-143.37;100.00;65745.06;5128503;27;20582;-69
2021/06/12 01:49:32;;;;;;;4.47;3.07;;;;;;;-143.37;100.00;65745.06;5127174;28;20210;-69
2021/06/12 01:51:59;;;;;;;5.03;3.13;;;;;;;-143.37;100.00;65745.06;5126804;27;20343;-70
2021/06/12 01:54:27;;;;;;;4.37;3.23;;;;;;;-143.37;100.00;65745.06;5128732;27;20261;-70
2021/06/12 01:56:54;;;;;;;3.63;2.43;;;;;;;-143.37;100.00;65745.06;5128431;27;20227;-70
2021/06/12 01:59:22;;;;;;;3.97;3.20;;;;;;;-143.37;100.00;65745.06;5128755;28;20301;-70
2021/06/12 02:01:52;;;;;;;4.67;3.43;;;;;;;-143.37;100.00;65745.06;5127302;27;20210;-70
2021/06/12 02:04:21;;;;;;;4.23;3.23;;;;;;;-143.37;100.00;65745.06;5128472;28;20286;-70
2021/06/12 02:06:48;;;;;;;4.10;2.93;;;;;;;-143.37;100.00;65745.06;5127200;28;20203;-69
2021/06/12 02:09:18;;;;;;;4.43;2.75;;;;;;;-143.37;100.00;65745.06;5128346;28;20199;-70
2021/06/12 02:11:45;;;;;;;3.90;2.70;;;;;;;-143.37;100.00;65745.06;5127280;27;20207;-70
2021/06/12 02:14:14;;;;;;;4.10;2.77;;;;;;;-143.37;100.00;65745.06;5128284;27;20314;-69
2021/06/12 02:16:41;;;;;;;3.30;2.70;;;;;;;-143.37;100.00;65745.06;5127866;27;20239;-70
2021/06/12 02:19:10;;;;;;;4.43;2.63;;;;;;;-143.37;100.00;65745.06;5128264;27;20207;-70
2021/06/12 02:21:39;;;;;;;6.30;3.10;;;;;;;-143.37;100.00;65745.06;5127253;27;20286;-70
2021/06/12 02:24:07;;;;;;;3.83;3.23;;;;;;;-143.37;100.00;65745.06;5128089;27;20195;-70
2021/06/12 02:26:45;;;;;;;3.83;2.73;;;;;;;-143.37;100.00;65745.06;5127994;27;20209;-70
2021/06/12 02:29:12;;;;;;;4.23;3.23;;;;;;;-143.37;100.00;65745.06;5121196;28;20203;-70
2021/06/12 02:31:48;;;;;;;5.23;3.23;;;;;;;-143.37;100.00;65745.06;5127097;27;20294;-70
2021/06/12 02:34:14;;;;;;;5.27;3.27;;;;;;;-143.37;100.00;65745.06;5127767;27;20602;-70
2021/06/12 02:36:41;;;;;;;4.03;2.80;;;;;;;-143.37;100.00;65745.06;5127613;27;20290;-70
2021/06/12 02:39:07;;;;;;;3.87;3.17;;;;;;;-143.37;100.00;65745.06;5127600;27;20290;-70
2021/06/12 02:41:34;;;;;;;4.80;3.60;;;;;;;-143.37;100.00;65745.06;5126608;27;20322;-70
2021/06/12 02:44:01;;;;;;;4.20;2.90;;;;;;;-143.37;100.00;65745.06;5129261;27;20698;-70
2021/06/12 02:46:32;;;;;;;5.47;3.60;;;;;;;-143.37;100.00;65745.06;5109846;28;20203;-70
2021/06/12 02:49:03;;;;;;;5.80;3.97;;;;;;;-143.37;100.00;65745.06;5112449;28;20207;-70
2021/06/12 02:51:34;;;;;;;4.53;3.03;;;;;;;-143.37;100.00;65745.06;5113273;28;20235;-70
2021/06/12 02:54:01;;;;;;;7.77;3.30;;;;;;;-143.37;100.00;65745.06;5113425;28;20230;-70
2021/06/12 02:56:31;;;;;;;4.57;3.40;;;;;;;-143.37;100.00;65745.06;5113665;28;20238;-70
2021/06/12 02:59:07;;;;;;;5.40;3.77;;;;;;;-143.37;100.00;65745.06;5113623;28;20214;-70
2021/06/12 03:01:36;;;;;;;4.47;3.33;;;;;;;-143.37;100.00;65745.06;5111964;28;20290;-70
2021/06/12 03:04:04;;;;;;;5.13;3.97;;;;;;;-143.37;100.00;65745.06;5113542;28;20203;-70
2021/06/12 03:06:31;;;;;;;4.93;3.17;;;;;;;-143.37;100.00;65745.06;5113344;28;20286;-70
2021/06/12 03:09:00;;;;;;;4.60;3.80;;;;;;;-143.37;100.00;65745.06;5113579;28;20204;-69
2021/06/12 03:11:29;;;;;;;6.43;3.50;;;;;;;-143.37;100.00;65745.06;5113153;28;20293;-69
2021/06/12 03:13:57;;;;;;;4.87;3.97;;;;;;;-143.37;100.00;65745.06;5112963;28;20274;-69
2021/06/12 03:16:24;;;;;;;6.07;3.83;;;;;;;-143.37;100.00;65745.06;5112228;28;20238;-69
2021/06/12 03:18:52;;;;;;;5.60;3.80;;;;;;;-143.37;100.00;65745.06;5113261;27;20294;-69
2021/06/12 03:21:24;;;;;;;4.93;3.63;;;;;;;-143.37;100.00;65745.06;5113276;28;20246;-70
2021/06/12 03:23:53;;;;;;;6.30;3.70;;;;;;;-143.37;100.00;65745.06;5112892;28;20271;-70
2021/06/12 03:26:23;;;;;;;5.43;4.00;;;;;;;-143.37;100.00;65745.06;5113392;28;20283;-69
2021/06/12 03:28:51;;;;;;;5.67;3.80;;;;;;;-143.37;100.00;65745.06;5113007;27;20396;-69
2021/06/12 03:31:19;;;;;;;5.10;3.57;;;;;;;-143.37;100.00;65745.06;5113107;28;20231;-70
2021/06/12 03:33:46;;;;;;;4.93;3.67;;;;;;;-143.37;100.00;65745.06;5093931;28;20250;-70
2021/06/12 03:36:14;;;;;;;5.50;3.97;;;;;;;-143.37;100.00;65745.06;5113075;28;20279;-70
2021/06/12 03:38:41;;;;;;;4.57;3.27;;;;;;;-143.37;100.00;65745.06;5112662;28;20239;-69
2021/06/12 03:41:11;;;;;;;4.53;3.20;;;;;;;-143.37;100.00;65745.06;5113062;28;20316;-70
2021/06/12 03:43:38;;;;;;;5.70;3.73;;;;;;;-143.37;100.00;65745.06;5118387;27;20351;-70
2021/06/12 03:46:06;;;;;;;4.90;3.83;;;;;;;-143.37;100.00;65745.06;5111508;28;20279;-69
2021/06/12 03:48:34;;;;;;;5.90;3.73;;;;;;;-143.37;100.00;65745.06;5112887;28;20746;-70
2021/06/12 03:51:01;;;;;;;5.93;3.63;;;;;;;-143.37;100.00;65745.06;5111943;28;20243;-70
2021/06/12 03:53:43;;;;;;;5.40;3.47;;;;;;;-143.37;100.00;65745.06;5111746;28;20259;-70
2021/06/12 03:56:12;;;;;;;4.33;3.40;;;;;;;-143.37;100.00;65745.06;5111706;28;20204;-70
2021/06/12 03:58:41;;;;;;;6.67;3.57;;;;;;;-143.37;100.00;65745.06;5112147;28;20755;-70
2021/06/12 04:01:11;;;;;;;5.23;3.50;;;;;;;-143.37;100.00;65745.06;5112765;28;20242;-70
2021/06/12 04:03:38;;;;;;;3.63;3.13;;;;;;;-143.37;100.00;65745.06;5111523;28;20833;-70
2021/06/12 04:06:06;;;;;;;4.27;3.50;;;;;;;-143.37;100.00;65745.06;5112392;28;20232;-70
2021/06/12 04:08:36;;;;;;;5.03;3.40;;;;;;;-143.37;100.00;65745.06;5112210;28;20672;-70
2021/06/12 04:11:03;;;;;;;6.10;3.73;;;;;;;-143.37;100.00;65745.06;5112115;28;20214;-70
2021/06/12 04:13:30;;;;;;;4.63;3.17;;;;;;;-143.37;100.00;65745.06;5111582;28;20234;-70
2021/06/12 04:15:57;;;;;;;4.37;3.13;;;;;;;-143.37;100.00;65745.06;5111982;28;20668;-70
2021/06/12 04:18:23;;;;;;;4.17;3.40;;;;;;;-143.37;100.00;65745.06;5112096;28;20575;-70
2021/06/12 04:20:51;;;;;;;5.37;3.37;;;;;;;-143.37;100.00;65745.06;5111907;28;20602;-70
2021/06/12 04:23:17;;;;;;;5.47;3.90;;;;;;;-143.37;100.00;65745.06;5111138;28;20699;-70
2021/06/12 04:25:47;;;;;;;5.50;3.67;;;;;;;-143.37;100.00;65745.06;5110701;28;20200;-69
2021/06/12 04:28:14;;;;;;;5.27;3.40;;;;;;;-143.37;100.00;65745.06;5110733;28;20303;-70
2021/06/12 04:30:40;;;;;;;4.57;3.50;;;;;;;-143.37;100.00;65745.06;5111727;28;20264;-70
2021/06/12 04:33:07;;;;;;;4.37;3.10;;;;;;;-143.37;100.00;65745.06;5111176;28;20232;-70
2021/06/12 04:35:34;;;;;;;5.07;3.50;;;;;;;-143.37;100.00;65745.06;5111945;28;20200;-70
2021/06/12 04:38:00;;;;;;;5.37;3.73;;;;;;;-143.37;100.00;65745.06;5111773;28;20338;-70
2021/06/12 04:40:32;;;;;;;4.77;3.50;;;;;;;-143.37;100.00;65745.06;5111796;28;20318;-70
2021/06/12 04:42:59;;;;;;;5.20;3.97;;;;;;;-143.37;100.00;65745.06;5117122;27;20791;-71
2021/06/12 04:45:27;;;;;;;5.27;3.77;;;;;;;-143.37;100.00;65745.06;5111570;28;20199;-70
2021/06/12 04:47:54;;;;;;;5.60;4.13;;;;;;;-143.37;100.00;65745.06;5111629;28;20208;-70
2021/06/12 04:50:21;;;;;;;6.87;4.37;;;;;;;-143.37;100.00;65745.06;5111322;28;20290;-70
2021/06/12 04:52:47;;;;;;;6.20;4.30;;;;;;;-143.37;100.00;65745.06;5109040;28;20319;-70
2021/06/12 04:55:14;;;;;;;3.97;2.93;;;;;;;-143.37;100.00;65745.06;5111521;28;20250;-70
2021/06/12 04:57:41;;;;;;;5.60;3.63;;;;;;;-143.37;100.00;65745.06;5111339;28;20203;-70
2021/06/12 05:00:11;;;;;;;5.50;3.75;;;;;;;-143.37;100.00;65745.06;5111259;28;20307;-69
2021/06/12 05:02:39;;;;;;;7.32;3.83;;;;;;;-143.37;100.00;65745.06;5110373;28;20227;-70
2021/06/12 05:05:06;;;;;;;6.10;3.83;;;;;;;-143.37;100.00;65745.06;5111272;28;20201;-69
2021/06/12 05:07:33;;;;;;;4.97;3.80;;;;;;;-143.37;100.00;65745.06;5111161;28;20299;-69
2021/06/12 05:10:00;;;;;;;4.88;3.47;;;;;;;-143.37;100.00;65745.06;5111185;28;20286;-69
2021/06/12 05:12:27;;;;;;;5.75;4.03;;;;;;;-143.37;100.00;65745.06;5110499;28;20310;-69
2021/06/12 05:14:56;;;;;;;3.80;3.22;;;;;;;-143.37;100.00;65745.06;5110929;28;20231;-69
2021/06/12 05:17:23;;;;;;;5.20;3.72;;;;;;;-143.37;100.00;65745.06;5111277;28;20287;-69
2021/06/12 05:19:49;;;;;;;3.88;3.10;;;;;;;-143.37;100.00;65745.06;5110727;28;20573;-69
2021/06/12 05:22:23;;;;;;;7.03;3.78;;;;;;;-143.37;100.00;65745.06;5109169;28;20247;-69
2021/06/12 05:24:50;;;;;;;3.55;2.50;;;;;;;-143.37;100.00;65745.06;5110657;28;20718;-69
2021/06/12 05:27:17;;;;;;;4.53;3.20;;;;;;;-143.37;100.00;65745.06;5111135;28;20210;-69
2021/06/12 05:29:45;;;;;;;4.20;3.13;;;;;;;-143.37;100.00;65745.06;5110841;28;20199;-69
2021/06/12 05:32:13;;;;;;;3.00;2.70;;;;;;;-143.37;100.00;65745.06;5109966;28;20771;-69
2021/06/12 05:34:40;;;;;;;5.45;3.25;;;;;;;-143.37;100.00;65745.06;5110535;28;20310;-69
2021/06/12 05:37:07;;;;;;;4.22;3.05;;;;;;;-143.37;100.00;65745.06;5110728;28;20668;-70
2021/06/12 05:39:33;;;;;;;4.60;3.22;;;;;;;-143.37;100.00;65745.06;5110868;28;20282;-69
2021/06/12 05:42:00;;;;;;;3.78;2.95;;;;;;;-143.37;100.00;65745.06;5111698;28;20314;-70
2021/06/12 05:44:27;;;;;;;6.97;2.97;;;;;;;-143.37;100.00;65745.06;5113921;27;20195;-69
2021/06/12 05:46:53;;;;;;;4.55;2.88;;;;;;;-143.37;100.00;65745.06;5110588;28;20282;-69
2021/06/12 05:49:22;;;;;;;2.65;2.30;;;;;;;-143.37;100.00;65745.06;5093120;28;20291;-70
2021/06/12 05:51:49;;;;;;;3.53;2.90;;;;;;;-143.37;100.00;65745.06;5109825;28;20283;-68
2021/06/12 05:54:16;;;;;;;3.95;3.08;;;;;;;-143.37;100.00;65745.06;5111191;28;20282;-69
2021/06/12 05:56:42;;;;;;;5.55;2.80;;;;;;;-143.37;100.00;65745.06;5110574;28;20209;-69
2021/06/12 05:59:08;;;;;;;3.75;2.88;;;;;;;-143.37;100.00;65745.06;5109466;28;20582;-69
2021/06/12 06:01:35;;;;;;;3.45;2.80;;;;;;;-143.37;100.00;65745.06;5110058;28;20287;-68
2021/06/12 06:04:02;;;;;;;4.03;2.92;;;;;;;-143.37;100.00;65745.06;5110891;28;20315;-69
2021/06/12 06:06:29;;;;;;;3.63;3.00;;;;;;;-143.37;100.00;65745.06;5110729;28;20714;-68
2021/06/12 06:08:55;;;;;;;3.70;2.72;;;;;;;-143.37;100.00;65745.06;5109115;28;20772;-68
2021/06/12 06:11:22;;;;;;;5.20;2.55;;;;;;;-143.37;100.00;65745.06;5110510;28;20286;-68
2021/06/12 06:13:48;;;;;;;3.03;2.67;;;;;;;-143.37;100.00;65745.06;5109514;28;20251;-68
2021/06/12 06:16:15;;;;;;;3.45;2.80;;;;;;;-143.37;100.00;65745.06;5110574;28;20207;-69
2021/06/12 06:18:42;;;;;;;3.20;2.90;;;;;;;-143.37;100.00;65745.06;5110362;28;20754;-68
2021/06/12 06:21:10;;;;;;;4.05;3.08;;;;;;;-143.37;100.00;65745.06;5113774;28;20581;-69
2021/06/12 06:23:37;;;;;;;4.07;3.35;;;;;;;-143.37;100.00;65745.06;5112237;28;20226;-68
2021/06/12 06:26:04;;;;;;;2.95;2.50;;;;;;;-143.37;100.00;65745.06;5114168;28;20806;-66
2021/06/12 06:28:30;;;;;;;7.07;3.40;;;;;;;-143.37;100.00;65745.06;5114243;28;20731;-66
2021/06/12 06:30:57;;;;;;;5.25;3.53;;;;;;;-143.37;100.00;65745.06;5114256;28;20282;-68
2021/06/12 06:33:24;;;;;;;4.22;3.25;;;;;;;-143.37;100.00;65745.06;5113501;28;20231;-67
2021/06/12 06:35:52;;;;;;;4.07;2.90;;;;;;;-143.37;100.00;65745.06;5112885;28;20232;-67
2021/06/12 06:38:20;;;;;;;4.00;2.80;;;;;;;-143.37;100.00;65745.06;5108439;28;20207;-65
2021/06/12 06:40:47;;;;;;;2.90;2.60;;;;;;;-143.37;100.00;65745.06;5111747;28;20287;-66
2021/06/12 06:43:14;;;;;;;3.00;2.70;;;;;;;-143.37;100.00;65745.06;5117591;27;20245;-67
2021/06/12 06:45:42;;;;;;;3.38;2.53;;;;;;;-143.37;100.00;65745.06;5112195;28;20311;-67
2021/06/12 06:48:10;;;;;;;4.22;3.00;;;;;;;-143.37;100.00;65745.06;5111596;28;20260;-67
2021/06/12 06:50:36;;;;;;;3.47;2.55;;;;;;;-143.37;100.00;65745.06;5111520;28;20283;-66
2021/06/12 06:53:03;;;;;;;3.10;2.67;;;;;;;-143.37;100.00;65745.06;5109807;28;20246;-68
2021/06/12 06:55:30;;;;;;;3.75;3.00;;;;;;;-143.37;100.00;65745.06;5112048;28;20299;-66
2021/06/12 06:57:56;;;;;;;3.38;2.72;;;;;;;-143.37;100.00;65745.06;5111989;28;20299;-67
2021/06/12 07:00:25;;;;;;;3.20;2.80;;;;;;;-143.37;100.00;65745.06;5111693;28;20633;-67
2021/06/12 07:02:55;;;;;;;2.72;2.45;;;;;;;-143.37;100.00;65745.06;5111297;27;21006;-67
2021/06/12 07:05:23;;;;;;;3.08;2.67;;;;;;;-143.37;100.00;65745.06;5110330;28;20605;-68
2021/06/12 07:07:49;;;;;;;2.72;2.50;;;;;;;-143.37;100.00;65745.06;5110473;28;20291;-68
2021/06/12 07:10:16;;;;;;;5.15;2.88;;;;;;;-143.37;100.00;65745.06;5111517;28;20314;-67
2021/06/12 07:12:43;;;;;;;4.32;3.10;;;;;;;-143.37;100.00;65745.06;5110478;28;20615;-67
2021/06/12 07:15:10;;;;;;;3.88;3.33;;;;;;;-143.37;100.00;65745.06;5111640;28;20268;-67
2021/06/12 07:17:37;;;;;;;3.20;2.70;;;;;;;-143.37;100.00;65745.06;5111119;28;20664;-68
2021/06/12 07:20:06;;;;;;;3.53;2.63;;;;;;;-143.37;100.00;65745.06;5111456;28;20286;-67
2021/06/12 07:22:32;;;;;;;3.58;2.92;;;;;;;-143.37;100.00;65745.06;5110505;28;20606;-67
2021/06/12 07:24:59;;;;;;;3.50;2.90;;;;;;;-143.37;100.00;65745.06;5111241;28;20882;-67
2021/06/12 07:27:26;;;;;;;3.85;3.05;;;;;;;-143.37;100.00;65745.06;5111418;28;20633;-69
2021/06/12 07:29:53;;;;;;;4.05;2.92;;;;;;;-143.37;100.00;65745.06;5111051;28;20242;-71
2021/06/12 07:32:19;;;;;;;4.07;3.30;;;;;;;-143.37;100.00;65745.06;5108902;28;20228;-69
2021/06/12 07:34:46;;;;;;;4.03;3.30;;;;;;;-143.37;100.00;65745.06;5110948;28;20200;-70
2021/06/12 07:37:12;;;;;;;6.82;3.70;;;;;;;-143.37;100.00;65745.06;5104314;28;20204;-68
2021/06/12 07:39:39;;;;;;;4.57;3.67;;;;;;;-143.37;100.00;65745.06;5110851;28;20684;-69
2021/06/12 07:42:05;;;;;;;4.85;3.50;;;;;;;-143.37;100.00;65745.06;5112618;27;20608;-68
2021/06/12 07:44:32;;;;;;;4.18;3.50;;;;;;;-143.37;100.00;65745.06;5114531;27;20222;-69
2021/06/12 07:46:58;;;;;;;3.35;2.92;;;;;;;-143.37;100.00;65745.06;5110590;28;20214;-68
2021/06/12 07:49:25;;;;;;;4.82;3.45;;;;;;;-143.37;100.00;65745.06;5092408;28;20295;-68
2021/06/12 07:51:51;;;;;;;4.57;3.03;;;;;;;-143.37;100.00;65745.06;5109166;28;20238;-68
2021/06/12 07:54:19;;;;;;;3.33;2.78;;;;;;;-143.37;100.00;65745.06;5110784;28;20195;-68
2021/06/12 07:56:46;;;;;;;7.05;3.38;;;;;;;-143.37;100.00;65745.06;5110413;28;20203;-67
2021/06/12 07:59:12;;;;;;;3.65;3.20;;;;;;;-143.37;100.00;65745.06;5109356;28;20297;-69
2021/06/12 08:01:39;;;;;;;4.03;3.55;;;;;;;-143.37;100.00;65745.06;5106889;28;20810;-68
2021/06/12 08:04:06;;;;;;;4.53;3.60;;;;;;;-143.37;100.00;65745.06;5109110;28;20208;-69
2021/06/12 08:06:32;;;;;;;4.20;3.40;;;;;;;-143.37;100.00;65745.06;5109899;28;20208;-68
2021/06/12 08:08:59;;;;;;;3.78;3.25;;;;;;;-143.37;100.00;65745.06;5110045;28;20223;-68
2021/06/12 08:11:26;;;;;;;4.60;3.58;;;;;;;-143.37;100.00;65745.06;5109610;28;20230;-68
2021/06/12 08:13:52;;;;;;;4.32;3.53;;;;;;;-143.37;100.00;65745.06;5109443;27;20250;-69
2021/06/12 08:16:19;;;;;;;4.97;3.38;;;;;;;-143.37;100.00;65745.06;5109985;28;20231;-68
2021/06/12 08:18:45;;;;;;;4.22;3.13;;;;;;;-143.37;100.00;65745.06;5109484;28;20200;-67
2021/06/12 08:21:12;;;;;;;3.70;3.17;;;;;;;-143.37;100.00;65745.06;5091454;28;20751;-69
2021/06/12 08:23:38;;;;;;;3.65;3.00;;;;;;;-143.37;100.00;65745.06;5107490;28;20255;-69
2021/06/12 08:26:05;;;;;;;3.40;2.83;;;;;;;-143.37;100.00;65745.06;5111578;28;20259;-70
2021/06/12 08:28:32;;;;;;;3.70;3.00;;;;;;;-143.37;100.00;65745.06;5108861;28;20633;-69
2021/06/12 08:30:58;;;;;;;4.43;3.17;;;;;;;-143.37;100.00;65745.06;5110039;28;20260;-70
2021/06/12 08:33:25;;;;;;;4.38;3.38;;;;;;;-143.37;100.00;65745.06;5110292;28;20238;-70
2021/06/12 08:35:52;;;;;;;3.30;2.88;;;;;;;-143.37;100.00;65745.06;5110983;28;20651;-70
2021/06/12 08:38:23;;;;;;;5.22;2.90;;;;;;;-143.37;100.00;65745.06;5111911;28;20252;-70
2021/06/12 08:40:50;;;;;;;3.97;3.00;;;;;;;-143.37;100.00;65745.06;5109927;28;20231;-70
2021/06/12 08:43:26;;;;;;;3.30;2.80;;;;;;;-143.37;100.00;65745.06;5109902;28;20259;-69
2021/06/12 08:45:57;;;;;;;4.57;3.30;;;;;;;-143.37;100.00;65745.06;5110746;28;20310;-70
2021/06/12 08:48:26;;;;;;;3.22;2.50;;;;;;;-143.37;100.00;65745.06;5110932;28;20246;-70
2021/06/12 08:50:54;;;;;;;3.78;3.10;;;;;;;-143.37;100.00;65745.06;5110772;28;20204;-69
2021/06/12 08:53:21;;;;;;;2.90;2.58;;;;;;;-143.37;100.00;65745.06;5108257;28;20230;-68
2021/06/12 08:55:48;;;;;;;3.03;2.72;;;;;;;-143.37;100.00;65745.06;5122026;28;20204;-69
2021/06/12 08:58:14;;;;;;;2.83;2.63;;;;;;;-143.37;100.00;65745.06;5125373;28;20207;-68
2021/06/12 09:00:42;;;;;;;4.55;3.28;;;;;;;-143.37;100.00;65745.06;5122142;28;20204;-68
2021/06/12 09:03:27;;;;;;;3.15;2.85;;;;;;;-143.37;100.00;65745.06;5110264;28;20636;-67
2021/06/12 09:05:54;;;;;;;2.67;2.45;;;;;;;-143.37;100.00;65745.06;5110970;28;20268;-66
2021/06/12 09:08:26;;;;;;;3.58;2.70;;;;;;;-143.37;100.00;65745.06;5110591;28;20676;-66
2021/06/12 09:10:57;;;;;;;2.72;2.53;;;;;;;-143.37;100.00;65745.06;5110510;28;20243;-65
2021/06/12 09:13:40;;;;;;;4.70;2.55;;;;;;;-143.37;100.00;65745.06;5109904;28;20306;-66
2021/06/12 09:16:28;;;;;;;2.38;2.17;;;;;;;-143.37;100.00;65745.06;5110751;28;20292;-65
2021/06/12 09:19:14;;;;;;;2.63;2.28;;;;;;;-143.37;100.00;65745.06;5097865;28;20243;-66
2021/06/12 09:21:44;;;;;;;3.67;3.33;;;;;;;-143.37;100.00;65745.06;5106585;28;20203;-65
2021/06/12 09:24:30;;;;;;;2.60;2.30;;;;;;;-143.37;100.00;65745.06;5109879;28;20791;-66
2021/06/12 09:27:00;;;;;;;2.40;2.20;;;;;;;-143.37;100.00;65745.06;5108875;28;20220;-66
2021/06/12 09:29:53;;;;;;;2.60;2.40;;;;;;;-143.37;100.00;65745.06;5109521;28;20681;-66
2021/06/12 09:32:25;;;;;;;2.50;2.30;;;;;;;-143.37;100.00;65745.06;5102596;28;20265;-65
2021/06/12 09:34:55;;;;;;;2.60;2.30;;;;;;;-143.37;100.00;65745.06;5109578;28;20195;-65
2021/06/12 09:37:24;;;;;;;2.97;2.47;;;;;;;-143.37;100.00;65745.06;5110404;28;20234;-67
2021/06/12 09:39:58;;;;;;;2.72;2.47;;;;;;;-143.37;100.00;65745.06;5109839;28;20574;-65
2021/06/12 09:42:40;;;;;;;2.45;2.25;;;;;;;-143.37;100.00;65745.06;5113881;28;20769;-66
2021/06/12 09:45:10;;;;;;;2.45;2.25;;;;;;;-143.37;100.00;65745.06;5102871;28;20264;-67
2021/06/12 09:47:36;;;;;;;4.22;2.50;;;;;;;-143.37;100.00;65745.06;5109525;28;20747;-68
2021/06/12 09:50:04;;;;;;;3.17;2.67;;;;;;;-143.37;100.00;65745.06;5110014;28;20216;-67
2021/06/12 09:52:41;;;;;;;2.30;2.10;;;;;;;-143.37;100.00;65745.06;5109084;28;20224;-66
2021/06/12 09:55:08;;;;;;;3.80;3.03;;;;;;;-143.37;100.00;65745.06;5111097;28;20310;-67
2021/06/12 09:57:47;;;;;;;3.45;3.10;;;;;;;-143.37;100.00;65745.06;5113749;28;20231;-66
2021/06/12 10:00:14;;;;;;;4.43;2.95;;;;;;;-143.37;100.00;65745.06;5114010;27;20195;-67
2021/06/12 10:02:46;;;;;;;2.53;2.30;;;;;;;-143.37;100.00;65745.06;5112907;28;20227;-66
2021/06/12 10:05:14;;;;;;;4.78;3.17;;;;;;;-143.37;100.00;65745.06;5113123;28;20219;-66
2021/06/12 10:07:42;;;;;;;3.90;3.50;;;;;;;-143.37;100.00;65745.06;5112457;28;20211;-66
2021/06/12 10:10:12;;;;;;;1.90;1.70;;;;;;;-143.37;100.00;65745.06;5113350;28;20239;-65
2021/06/12 10:12:40;;;;;;;2.10;1.90;;;;;;;-143.37;100.00;65745.06;5109186;28;20310;-66
2021/06/12 10:15:12;;;;;;;2.85;2.28;;;;;;;-143.37;100.00;65745.06;5112947;27;20199;-68
2021/06/12 10:17:48;;;;;;;2.70;1.92;;;;;;;-143.37;100.00;65745.06;5111753;28;20234;-67
2021/06/12 10:20:18;;;;;;;3.25;1.95;;;;;;;-143.37;100.00;65745.06;5112499;27;20204;-67
2021/06/12 10:22:46;;;;;;;2.95;2.08;;;;;;;-143.37;100.00;65745.06;5112404;28;20289;-67
2021/06/12 10:25:15;;;;;;;1.95;1.73;;;;;;;-143.37;100.00;65745.06;5109562;27;20239;-67
2021/06/12 10:27:43;;;;;;;4.68;4.10;;;;;;;-143.37;100.00;65745.06;5110777;28;20214;-66
2021/06/12 10:30:12;;;;;;;3.35;1.75;;;;;;;-143.37;100.00;65745.06;5112650;28;20650;-67
2021/06/12 10:32:49;;;;;;;2.70;2.08;;;;;;;-143.37;100.00;65745.06;5102946;28;20228;-67
2021/06/12 10:35:22;;;;;;;3.83;1.70;;;;;;;-143.37;100.00;65745.06;5112389;28;20370;-66
2021/06/12 10:37:57;;;;;;;2.22;2.03;;;;;;;-143.37;100.00;65745.06;5112078;28;20200;-67
2021/06/12 10:40:47;;;;;;;1.83;1.60;;;;;;;-143.37;100.00;65745.06;5114587;28;20206;-67
2021/06/12 10:43:22;;;;;;;2.35;1.40;;;;;;;-143.37;100.00;65745.06;5111813;27;20315;-66
2021/06/12 10:46:09;;;;;;;2.95;2.10;;;;;;;-143.37;100.00;65745.06;5112128;28;20265;-66
2021/06/12 10:48:52;;;;;;;2.10;1.90;;;;;;;-143.37;100.00;65745.06;5111865;28;20294;-66
2021/06/12 10:51:25;;;;;;;1.75;1.65;;;;;;;-143.37;100.00;65745.06;5112423;27;20266;-67
2021/06/12 10:54:19;;;;;;;1.48;1.38;;;;;;;-143.37;100.00;65745.06;5111740;28;20238;-66
2021/06/12 10:57:16;;;;;;;1.95;1.70;;;;;;;-143.37;100.00;65745.06;5111978;28;20752;-66
2021/06/12 10:59:44;;;;;;;1.80;1.70;;;;;;;-143.37;100.00;65745.06;5109541;28;20206;-66
2021/06/12 11:05:06;;;;;;;5.65;2.97;;;;;;;-143.37;100.00;65745.06;5111824;28;20215;-67
2021/06/12 11:07:43;;;;;;;2.30;2.10;;;;;;;-143.37;100.00;65745.06;5112081;28;20239;-65
2021/06/12 11:10:09;;;;;;;2.13;1.70;;;;;;;-143.37;100.00;65745.06;5104985;28;20208;-66
2021/06/12 11:12:40;;;;;;;3.25;1.92;;;;;;;-143.37;100.00;65745.06;5110566;28;20696;-66
2021/06/12 11:15:10;;;;;;;1.63;1.52;;;;;;;-143.37;100.00;65745.06;5112043;28;20283;-66
2021/06/12 11:17:42;;;;;;;2.97;2.33;;;;;;;-143.37;100.00;65745.06;5111169;28;20204;-65
2021/06/12 11:20:11;;;;;;;10.05;6.63;;;;;;;-143.37;100.00;65745.06;5111805;28;20250;-67
2021/06/12 11:22:54;;;;;;;2.20;1.90;;;;;;;-143.37;100.00;65745.06;5110362;28;20342;-66
2021/06/12 11:25:23;;;;;;;2.40;2.05;;;;;;;-143.37;100.00;65745.06;5118438;28;20671;-66
2021/06/12 11:27:52;;;;;;;1.70;1.40;;;;;;;-143.37;100.00;65745.06;5119117;28;20199;-66
2021/06/12 11:30:19;;;;;;;3.72;1.73;;;;;;;-143.37;100.00;65745.06;5115178;28;20243;-66
2021/06/12 11:32:56;;;;;;;1.95;1.63;;;;;;;-143.37;100.00;65745.06;5112307;28;20708;-66
2021/06/12 11:35:52;;;;;;;1.67;1.55;;;;;;;-143.37;100.00;65745.06;5112815;28;20276;-66
2021/06/12 11:38:29;;;;;;;1.80;1.55;;;;;;;-143.37;100.00;65745.06;5111447;28;20282;-68
2021/06/12 11:41:03;;;;;;;2.20;2.00;;;;;;;-143.37;100.00;65745.06;5110500;28;20812;-66
2021/06/12 11:43:32;;;;;;;1.65;1.55;;;;;;;-143.37;100.00;65745.06;5109901;27;20310;-66
2021/06/12 11:46:01;;;;;;;2.28;1.85;;;;;;;-143.37;100.00;65745.06;5109838;28;20255;-69
2021/06/12 11:48:27;;;;;;;5.32;2.55;;;;;;;-143.37;100.00;65745.06;5109706;28;20204;-65
2021/06/12 11:50:56;;;;;;;4.95;2.65;;;;;;;-143.37;100.00;65745.06;5106823;28;20367;-66
2021/06/12 11:53:33;;;;;;;2.20;1.90;;;;;;;-143.37;100.00;65745.06;5108752;28;20278;-66
2021/06/12 11:56:01;;;;;;;2.65;2.03;;;;;;;-143.37;100.00;65745.06;5110005;28;20204;-66